createdAt,value
2016-11-01T00:00:15.605Z,0
2016-11-01T00:01:15.583Z,0
2016-11-01T00:02:15.565Z,0
2016-11-01T00:03:15.248Z,0
2016-11-01T00:04:14.932Z,0
2016-11-01T00:05:15.519Z,0
2016-11-01T00:06:15.498Z,0
2016-11-01T00:07:15.493Z,0
2016-11-01T00:08:15.168Z,0
2016-11-01T00:09:15.146Z,0
2016-11-01T00:10:15.141Z,0
2016-11-01T00:11:15.425Z,0
2016-11-01T00:12:15.108Z,0
2016-11-01T00:13:15.392Z,0
2016-11-01T00:14:15.384Z,0
2016-11-01T00:15:15.383Z,0
2016-11-01T00:16:15.044Z,0
2016-11-01T00:17:15.024Z,0
2016-11-01T00:18:15.301Z,0
2016-11-01T00:19:15.290Z,0
2016-11-01T00:20:15.273Z,0
2016-11-01T00:21:14.962Z,0
2016-11-01T00:22:15.238Z,0
2016-11-01T00:23:15.221Z,0
2016-11-01T00:24:15.212Z,0
2016-11-01T00:25:15.193Z,0
2016-11-01T00:26:15.181Z,0
2016-11-01T00:27:14.868Z,0
2016-11-01T00:28:15.143Z,0
2016-11-01T00:29:15.125Z,0
2016-11-01T00:30:15.119Z,0
2016-11-01T00:31:14.801Z,0
2016-11-01T00:32:15.078Z,0
2016-11-01T00:33:15.075Z,0
2016-11-01T00:34:14.450Z,0
2016-11-01T00:35:15.051Z,0
2016-11-01T00:36:14.117Z,0
2016-11-01T00:37:14.394Z,0
2016-11-01T00:38:15.013Z,0
2016-11-01T00:39:14.966Z,0
2016-11-01T00:40:14.954Z,0
2016-11-01T00:41:14.939Z,0
2016-11-01T00:42:14.922Z,0
2016-11-01T00:43:14.900Z,0
2016-11-01T00:44:14.888Z,0
2016-11-01T00:45:14.876Z,0
2016-11-01T00:46:14.253Z,0
2016-11-01T00:47:14.848Z,0
2016-11-01T00:48:14.819Z,0
2016-11-01T00:49:14.799Z,0
2016-11-01T00:50:14.791Z,0
2016-11-01T00:51:14.775Z,0
2016-11-01T00:52:14.772Z,0
2016-11-01T00:53:14.743Z,0
2016-11-01T00:54:14.772Z,0
2016-11-01T00:55:14.917Z,0
2016-11-01T00:56:14.127Z,0
2016-11-01T00:57:14.681Z,0
2016-11-01T00:58:14.353Z,0
2016-11-01T00:59:14.645Z,0
2016-11-01T01:00:14.019Z,0
2016-11-01T01:01:14.614Z,0
2016-11-01T01:02:14.584Z,0
2016-11-01T01:03:14.571Z,0
2016-11-01T01:04:14.551Z,0
2016-11-01T01:05:14.237Z,0
2016-11-01T01:06:14.525Z,0
2016-11-01T01:07:14.503Z,0
2016-11-01T01:08:14.483Z,0
2016-11-01T01:09:14.171Z,0
2016-11-01T01:10:14.459Z,0
2016-11-01T01:11:14.439Z,0
2016-11-01T01:12:14.124Z,0
2016-11-01T01:13:14.405Z,0
2016-11-01T01:14:14.088Z,0
2016-11-01T01:15:14.373Z,0
2016-11-01T01:16:14.357Z,0
2016-11-01T01:17:14.338Z,0
2016-11-01T01:18:14.325Z,0
2016-11-01T01:19:14.304Z,0
2016-11-01T01:20:13.989Z,0
2016-11-01T01:21:14.280Z,0
2016-11-01T01:22:13.984Z,0
2016-11-01T01:23:14.271Z,0
2016-11-01T01:24:14.221Z,0
2016-11-01T01:25:14.201Z,0
2016-11-01T01:26:14.193Z,0
2016-11-01T01:27:14.170Z,0
2016-11-01T01:28:14.159Z,0
2016-11-01T01:29:14.136Z,0
2016-11-01T01:30:14.121Z,0
2016-11-01T01:31:13.516Z,0
2016-11-01T01:32:14.088Z,0
2016-11-01T01:33:14.077Z,0
2016-11-01T01:34:14.060Z,0
2016-11-01T01:35:14.075Z,0
2016-11-01T01:36:14.026Z,0
2016-11-01T01:37:13.709Z,0
2016-11-01T01:38:13.691Z,0
2016-11-01T01:39:13.968Z,0
2016-11-01T01:40:13.653Z,0
2016-11-01T01:41:13.940Z,0
2016-11-01T01:42:13.937Z,0
2016-11-01T01:43:13.905Z,0
2016-11-01T01:44:13.888Z,0
2016-11-01T01:45:13.877Z,0
2016-11-01T01:46:13.855Z,0
2016-11-01T01:47:13.536Z,0
2016-11-01T01:48:13.831Z,0
2016-11-01T01:49:13.804Z,0
2016-11-01T01:50:13.750Z,0
2016-11-01T01:51:13.481Z,0
2016-11-01T01:52:13.787Z,0
2016-11-01T01:53:13.145Z,0
2016-11-01T01:54:13.718Z,0
2016-11-01T01:55:13.717Z,0
2016-11-01T01:56:13.691Z,0
2016-11-01T01:57:13.668Z,0
2016-11-01T01:58:13.655Z,0
2016-11-01T01:59:13.346Z,0
2016-11-01T02:00:13.621Z,0
2016-11-01T02:01:13.617Z,0
2016-11-01T02:02:13.590Z,0
2016-11-01T02:03:13.567Z,0
2016-11-01T02:04:12.952Z,0
2016-11-01T02:05:13.581Z,0
2016-11-01T02:06:12.927Z,0
2016-11-01T02:07:13.498Z,0
2016-11-01T02:08:13.189Z,0
2016-11-01T02:09:13.172Z,0
2016-11-01T02:10:13.461Z,0
2016-11-01T02:11:13.441Z,0
2016-11-01T02:12:13.125Z,0
2016-11-01T02:13:13.100Z,0
2016-11-01T02:14:13.100Z,0
2016-11-01T02:15:13.074Z,0
2016-11-01T02:16:13.355Z,0
2016-11-01T02:17:13.336Z,0
2016-11-01T02:18:13.319Z,0
2016-11-01T02:19:13.001Z,0
2016-11-01T02:20:12.976Z,0
2016-11-01T02:21:13.275Z,0
2016-11-01T02:22:13.248Z,0
2016-11-01T02:23:13.235Z,0
2016-11-01T02:24:13.262Z,0
2016-11-01T02:25:13.198Z,0
2016-11-01T02:26:13.196Z,0
2016-11-01T02:27:13.202Z,0
2016-11-01T02:28:12.850Z,0
2016-11-01T02:29:13.134Z,0
2016-11-01T02:30:13.115Z,0
2016-11-01T02:31:13.099Z,0
2016-11-01T02:32:13.082Z,0
2016-11-01T02:33:13.061Z,0
2016-11-01T02:34:13.054Z,0
2016-11-01T02:35:13.072Z,0
2016-11-01T02:36:12.713Z,0
2016-11-01T02:37:13.040Z,0
2016-11-01T02:38:12.980Z,0
2016-11-01T02:39:12.957Z,0
2016-11-01T02:40:12.946Z,0
2016-11-01T02:41:12.935Z,0
2016-11-01T02:42:12.614Z,0
2016-11-01T02:43:12.894Z,0
2016-11-01T02:44:12.585Z,0
2016-11-01T02:45:12.864Z,0
2016-11-01T02:46:12.843Z,0
2016-11-01T02:47:12.823Z,0
2016-11-01T02:48:12.810Z,0
2016-11-01T02:49:12.805Z,0
2016-11-01T02:50:12.772Z,0
2016-11-01T02:51:12.761Z,0
2016-11-01T02:52:12.748Z,0
2016-11-01T02:53:12.728Z,0
2016-11-01T02:54:12.745Z,0
2016-11-01T02:55:12.690Z,0
2016-11-01T02:56:12.374Z,0
2016-11-01T02:57:12.661Z,0
2016-11-01T02:58:12.344Z,0
2016-11-01T02:59:12.621Z,0
2016-11-01T03:00:12.610Z,0
2016-11-01T03:01:12.592Z,0
2016-11-01T03:02:12.574Z,0
2016-11-01T03:03:12.560Z,0
2016-11-01T03:04:12.537Z,0
2016-11-01T03:05:12.529Z,0
2016-11-01T03:06:12.501Z,0
2016-11-01T03:07:12.523Z,0
2016-11-01T03:08:12.484Z,0
2016-11-01T03:09:12.459Z,0
2016-11-01T03:10:12.439Z,0
2016-11-01T03:11:12.421Z,0
2016-11-01T03:12:12.598Z,0
2016-11-01T03:13:12.528Z,0
2016-11-01T03:14:12.517Z,0
2016-11-01T03:15:12.506Z,0
2016-11-01T03:16:12.481Z,0
2016-11-01T03:17:12.505Z,0
2016-11-01T03:18:12.448Z,0
2016-11-01T03:19:12.429Z,0
2016-11-01T03:20:12.405Z,0
2016-11-01T03:21:12.392Z,0
2016-11-01T03:22:12.064Z,0
2016-11-01T03:23:12.362Z,0
2016-11-01T03:24:12.341Z,0
2016-11-01T03:25:12.329Z,0
2016-11-01T03:26:11.996Z,0
2016-11-01T03:27:12.289Z,0
2016-11-01T03:28:12.292Z,0
2016-11-01T03:29:12.258Z,0
2016-11-01T03:30:11.933Z,0
2016-11-01T03:31:12.222Z,0
2016-11-01T03:32:12.215Z,0
2016-11-01T03:33:12.196Z,0
2016-11-01T03:34:12.182Z,0
2016-11-01T03:35:12.160Z,0
2016-11-01T03:36:12.138Z,0
2016-11-01T03:37:11.811Z,0
2016-11-01T03:38:12.110Z,0
2016-11-01T03:39:12.091Z,0
2016-11-01T03:40:12.069Z,0
2016-11-01T03:41:11.738Z,0
2016-11-01T03:42:12.035Z,0
2016-11-01T03:43:12.018Z,0
2016-11-01T03:44:11.865Z,0
2016-11-01T03:45:11.853Z,0
2016-11-01T03:46:11.828Z,0
2016-11-01T03:47:11.817Z,0
2016-11-01T03:48:11.493Z,0
2016-11-01T03:49:11.776Z,0
2016-11-01T03:50:11.755Z,0
2016-11-01T03:51:11.740Z,0
2016-11-01T03:52:11.763Z,0
2016-11-01T03:53:11.719Z,0
2016-11-01T03:54:11.690Z,0
2016-11-01T03:55:11.817Z,0
2016-11-01T03:56:11.802Z,0
2016-11-01T03:57:11.788Z,0
2016-11-01T03:58:11.769Z,0
2016-11-01T03:59:11.751Z,0
2016-11-01T04:00:11.425Z,0
2016-11-01T04:01:11.758Z,0
2016-11-01T04:02:11.704Z,0
2016-11-01T04:03:11.367Z,0
2016-11-01T04:04:11.672Z,0
2016-11-01T04:05:11.683Z,0
2016-11-01T04:06:11.662Z,0
2016-11-01T04:07:11.619Z,0
2016-11-01T04:08:11.289Z,0
2016-11-01T04:09:11.583Z,0
2016-11-01T04:10:11.247Z,0
2016-11-01T04:11:11.554Z,0
2016-11-01T04:12:11.528Z,0
2016-11-01T04:13:11.513Z,0
2016-11-01T04:14:11.502Z,0
2016-11-01T04:15:11.473Z,0
2016-11-01T04:16:11.459Z,0
2016-11-01T04:17:11.451Z,0
2016-11-01T04:18:10.977Z,0
2016-11-01T04:19:11.270Z,0
2016-11-01T04:20:11.250Z,0
2016-11-01T04:21:11.229Z,0
2016-11-01T04:22:11.438Z,0
2016-11-01T04:23:11.207Z,0
2016-11-01T04:24:11.187Z,0
2016-11-01T04:25:11.164Z,0
2016-11-01T04:26:11.143Z,0
2016-11-01T04:27:11.140Z,0
2016-11-01T04:28:11.117Z,0
2016-11-01T04:29:11.096Z,0
2016-11-01T04:30:11.078Z,0
2016-11-01T04:31:11.067Z,0
2016-11-01T04:32:11.044Z,0
2016-11-01T04:33:11.028Z,0
2016-11-01T04:34:11.015Z,0
2016-11-01T04:35:11.034Z,0
2016-11-01T04:36:10.979Z,0
2016-11-01T04:37:10.966Z,0
2016-11-01T04:38:10.946Z,0
2016-11-01T04:39:10.931Z,0
2016-11-01T04:40:10.906Z,0
2016-11-01T04:41:10.588Z,0
2016-11-01T04:42:10.887Z,0
2016-11-01T04:43:11.059Z,0
2016-11-01T04:44:10.839Z,0
2016-11-01T04:45:10.824Z,0
2016-11-01T04:46:10.811Z,0
2016-11-01T04:47:10.786Z,0
2016-11-01T04:48:10.768Z,0
2016-11-01T04:49:10.791Z,0
2016-11-01T04:50:10.732Z,0
2016-11-01T04:51:10.714Z,0
2016-11-01T04:52:10.699Z,0
2016-11-01T04:53:10.688Z,0
2016-11-01T04:54:10.669Z,0
2016-11-01T04:55:10.666Z,0
2016-11-01T04:56:10.632Z,0
2016-11-01T04:57:10.627Z,0
2016-11-01T04:58:10.294Z,0
2016-11-01T04:59:10.585Z,0
2016-11-01T05:00:10.566Z,0
2016-11-01T05:01:10.548Z,0
2016-11-01T05:02:10.527Z,0
2016-11-01T05:03:10.514Z,0
2016-11-01T05:04:10.494Z,0
2016-11-01T05:05:10.482Z,0
2016-11-01T05:06:10.480Z,0
2016-11-01T05:07:10.457Z,0
2016-11-01T05:08:10.426Z,0
2016-11-01T05:09:10.420Z,0
2016-11-01T05:10:10.428Z,0
2016-11-01T05:11:10.376Z,0
2016-11-01T05:12:10.358Z,0
2016-11-01T05:13:10.339Z,0
2016-11-01T05:14:10.320Z,0
2016-11-01T05:15:10.307Z,0
2016-11-01T05:16:09.992Z,0
2016-11-01T05:17:10.301Z,0
2016-11-01T05:18:10.295Z,0
2016-11-01T05:19:10.243Z,0
2016-11-01T05:20:10.225Z,0
2016-11-01T05:21:09.902Z,0
2016-11-01T05:22:10.184Z,0
2016-11-01T05:23:09.561Z,0
2016-11-01T05:24:10.157Z,0
2016-11-01T05:25:10.175Z,0
2016-11-01T05:26:10.120Z,0
2016-11-01T05:27:09.802Z,0
2016-11-01T05:28:09.785Z,0
2016-11-01T05:29:10.062Z,0
2016-11-01T05:30:10.048Z,0
2016-11-01T05:31:09.433Z,0
2016-11-01T05:32:10.012Z,0
2016-11-01T05:33:10.001Z,0
2016-11-01T05:34:09.687Z,0
2016-11-01T05:35:09.965Z,0
2016-11-01T05:36:09.386Z,0
2016-11-01T05:37:09.938Z,0
2016-11-01T05:38:09.915Z,0
2016-11-01T05:39:09.597Z,0
2016-11-01T05:40:09.580Z,0
2016-11-01T05:41:09.865Z,0
2016-11-01T05:42:09.849Z,0
2016-11-01T05:43:09.832Z,0
2016-11-01T05:44:09.812Z,0
2016-11-01T05:45:09.799Z,0
2016-11-01T05:46:09.485Z,0
2016-11-01T05:47:09.794Z,0
2016-11-01T05:48:09.757Z,0
2016-11-01T05:49:09.731Z,0
2016-11-01T05:50:09.422Z,0
2016-11-01T05:51:09.396Z,0
2016-11-01T05:52:09.389Z,0
2016-11-01T05:53:09.662Z,0
2016-11-01T05:54:09.056Z,0
2016-11-01T05:55:09.625Z,0
2016-11-01T05:56:09.616Z,0
2016-11-01T05:57:08.992Z,0
2016-11-01T05:58:09.577Z,0
2016-11-01T05:59:09.563Z,0
2016-11-01T06:00:09.241Z,0
2016-11-01T06:01:09.225Z,0
2016-11-01T06:02:09.511Z,0
2016-11-01T06:03:09.188Z,0
2016-11-01T06:04:09.484Z,0
2016-11-01T06:05:09.459Z,0
2016-11-01T06:06:09.144Z,0
2016-11-01T06:07:09.432Z,0
2016-11-01T06:08:09.109Z,0
2016-11-01T06:09:09.396Z,0
2016-11-01T06:10:09.378Z,0
2016-11-01T06:11:09.053Z,0
2016-11-01T06:12:09.344Z,0
2016-11-01T06:13:09.328Z,0
2016-11-01T06:14:09.003Z,0
2016-11-01T06:15:08.993Z,0
2016-11-01T06:16:09.297Z,0
2016-11-01T06:17:08.974Z,0
2016-11-01T06:18:08.640Z,0
2016-11-01T06:19:08.925Z,0
2016-11-01T06:20:09.210Z,0
2016-11-01T06:21:09.192Z,0
2016-11-01T06:22:09.183Z,0
2016-11-01T06:23:09.159Z,0
2016-11-01T06:24:09.152Z,0
2016-11-01T06:25:09.122Z,0
2016-11-01T06:26:09.109Z,0
2016-11-01T06:27:09.094Z,0
2016-11-01T06:28:09.091Z,0
2016-11-01T06:29:09.056Z,0
2016-11-01T06:30:09.043Z,0
2016-11-01T06:31:09.029Z,0
2016-11-01T06:32:09.019Z,0
2016-11-01T06:33:08.988Z,0
2016-11-01T06:34:09.017Z,0
2016-11-01T06:35:08.963Z,0
2016-11-01T06:36:08.645Z,0
2016-11-01T06:37:08.664Z,0
2016-11-01T06:38:08.912Z,0
2016-11-01T06:39:08.897Z,0
2016-11-01T06:40:08.873Z,0
2016-11-01T06:41:08.260Z,0
2016-11-01T06:42:08.865Z,0
2016-11-01T06:43:08.835Z,0
2016-11-01T06:44:08.814Z,0
2016-11-01T06:45:08.496Z,0
2016-11-01T06:46:08.475Z,0
2016-11-01T06:47:08.761Z,0
2016-11-01T06:48:08.480Z,0
2016-11-01T06:49:08.129Z,0
2016-11-01T06:50:08.723Z,0
2016-11-01T06:51:08.397Z,0
2016-11-01T06:52:08.691Z,0
2016-11-01T06:53:08.364Z,0
2016-11-01T06:54:08.653Z,0
2016-11-01T06:55:08.334Z,0
2016-11-01T06:56:08.320Z,0
2016-11-01T06:57:08.601Z,0
2016-11-01T06:58:08.601Z,0
2016-11-01T06:59:08.581Z,0
2016-11-01T07:00:08.550Z,0
2016-11-01T07:01:08.542Z,0
2016-11-01T07:02:08.216Z,0
2016-11-01T07:03:07.914Z,0
2016-11-01T07:04:08.481Z,0
2016-11-01T07:05:08.165Z,0
2016-11-01T07:06:08.148Z,0
2016-11-01T07:07:08.437Z,0
2016-11-01T07:08:08.121Z,0
2016-11-01T07:09:08.413Z,0
2016-11-01T07:10:08.405Z,0
2016-11-01T07:11:08.072Z,0
2016-11-01T07:12:08.366Z,0
2016-11-01T07:13:07.742Z,0
2016-11-01T07:14:07.718Z,0
2016-11-01T07:15:08.314Z,0
2016-11-01T07:16:08.292Z,0
2016-11-01T07:17:08.012Z,0
2016-11-01T07:18:07.955Z,0
2016-11-01T07:19:08.247Z,0
2016-11-01T07:20:08.236Z,0
2016-11-01T07:21:08.215Z,0
2016-11-01T07:22:08.198Z,0
2016-11-01T07:23:08.186Z,0
2016-11-01T07:24:07.863Z,0
2016-11-01T07:25:08.152Z,0
2016-11-01T07:26:08.139Z,0
2016-11-01T07:27:08.121Z,0
2016-11-01T07:28:07.792Z,0
2016-11-01T07:29:08.091Z,0
2016-11-01T07:30:08.072Z,0
2016-11-01T07:31:08.049Z,0
2016-11-01T07:32:08.042Z,0
2016-11-01T07:33:08.021Z,0
2016-11-01T07:34:07.999Z,0
2016-11-01T07:35:07.998Z,0
2016-11-01T07:36:07.985Z,0
2016-11-01T07:37:07.655Z,0
2016-11-01T07:38:07.942Z,0
2016-11-01T07:39:07.929Z,0
2016-11-01T07:40:07.642Z,0
2016-11-01T07:41:07.903Z,0
2016-11-01T07:42:07.874Z,0
2016-11-01T07:43:07.553Z,0
2016-11-01T07:44:07.844Z,0
2016-11-01T07:45:06.923Z,0
2016-11-01T07:46:07.810Z,0
2016-11-01T07:47:07.501Z,0
2016-11-01T07:48:07.783Z,0
2016-11-01T07:49:07.462Z,0
2016-11-01T07:50:07.757Z,0
2016-11-01T07:51:07.130Z,0
2016-11-01T07:52:07.716Z,0
2016-11-01T07:53:07.700Z,0
2016-11-01T07:54:07.691Z,0
2016-11-01T07:55:07.671Z,0
2016-11-01T07:56:07.351Z,0
2016-11-01T07:57:07.343Z,0
2016-11-01T07:58:07.624Z,0
2016-11-01T07:59:07.313Z,0
2016-11-01T08:00:07.600Z,0
2016-11-01T08:01:07.275Z,0
2016-11-01T08:02:07.556Z,0
2016-11-01T08:03:07.253Z,0
2016-11-01T08:04:07.560Z,0
2016-11-01T08:05:07.523Z,0
2016-11-01T08:06:06.906Z,0
2016-11-01T08:07:06.881Z,0
2016-11-01T08:08:06.864Z,0
2016-11-01T08:09:07.154Z,0
2016-11-01T08:10:07.436Z,0
2016-11-01T08:11:07.125Z,0
2016-11-01T08:12:07.106Z,0
2016-11-01T08:13:07.390Z,0
2016-11-01T08:14:07.374Z,0
2016-11-01T08:15:07.067Z,0
2016-11-01T08:16:07.043Z,0
2016-11-01T08:17:07.330Z,0
2016-11-01T08:18:07.006Z,0
2016-11-01T08:19:07.292Z,0
2016-11-01T08:20:06.983Z,0
2016-11-01T08:21:07.270Z,0
2016-11-01T08:22:07.244Z,0
2016-11-01T08:23:07.242Z,0
2016-11-01T08:24:07.219Z,0
2016-11-01T08:25:06.898Z,0
2016-11-01T08:26:07.190Z,0
2016-11-01T08:27:07.168Z,0
2016-11-01T08:28:07.160Z,0
2016-11-01T08:29:07.140Z,0
2016-11-01T08:30:07.124Z,0
2016-11-01T08:31:07.102Z,0
2016-11-01T08:32:07.097Z,0
2016-11-01T08:33:07.080Z,0
2016-11-01T08:34:06.759Z,0
2016-11-01T08:35:07.063Z,0
2016-11-01T08:36:06.727Z,0
2016-11-01T08:37:07.007Z,0
2016-11-01T08:38:06.993Z,0
2016-11-01T08:39:06.976Z,0
2016-11-01T08:40:06.965Z,0
2016-11-01T08:41:06.657Z,0
2016-11-01T08:42:06.930Z,0
2016-11-01T08:43:06.625Z,0
2016-11-01T08:44:06.604Z,0
2016-11-01T08:45:06.886Z,0
2016-11-01T08:46:06.878Z,0
2016-11-01T08:47:06.857Z,0
2016-11-01T08:48:06.840Z,0
2016-11-01T08:49:06.229Z,0
2016-11-01T08:50:06.511Z,0
2016-11-01T08:51:06.481Z,0
2016-11-01T08:52:06.479Z,0
2016-11-01T08:53:06.465Z,0
2016-11-01T08:54:06.748Z,0
2016-11-01T08:55:06.425Z,0
2016-11-01T08:56:06.709Z,0
2016-11-01T08:57:06.402Z,0
2016-11-01T08:58:06.679Z,0
2016-11-01T08:59:06.663Z,0
2016-11-01T09:00:06.052Z,0
2016-11-01T09:01:06.625Z,0
2016-11-01T09:02:06.618Z,0
2016-11-01T09:03:06.610Z,0
2016-11-01T09:04:06.595Z,0
2016-11-01T09:05:06.562Z,0
2016-11-01T09:06:06.561Z,0
2016-11-01T09:07:06.530Z,0
2016-11-01T09:08:06.517Z,0
2016-11-01T09:09:06.501Z,0
2016-11-01T09:10:06.504Z,0
2016-11-01T09:11:06.511Z,0
2016-11-01T09:12:06.148Z,0
2016-11-01T09:13:06.439Z,0
2016-11-01T09:14:06.435Z,0
2016-11-01T09:15:06.096Z,0
2016-11-01T09:16:06.387Z,0
2016-11-01T09:17:06.375Z,0
2016-11-01T09:18:06.051Z,0
2016-11-01T09:19:06.051Z,0
2016-11-01T09:20:06.020Z,0
2016-11-01T09:21:06.319Z,0
2016-11-01T09:22:06.300Z,0
2016-11-01T09:23:05.983Z,0
2016-11-01T09:24:06.260Z,0
2016-11-01T09:25:06.245Z,0
2016-11-01T09:26:05.665Z,0
2016-11-01T09:27:06.218Z,0
2016-11-01T09:28:06.194Z,0
2016-11-01T09:29:06.182Z,0
2016-11-01T09:30:06.166Z,0
2016-11-01T09:31:06.149Z,0
2016-11-01T09:32:05.861Z,0
2016-11-01T09:33:06.112Z,0
2016-11-01T09:34:06.139Z,0
2016-11-01T09:35:05.786Z,0
2016-11-01T09:36:05.775Z,0
2016-11-01T09:37:05.757Z,0
2016-11-01T09:38:05.775Z,0
2016-11-01T09:39:05.731Z,0
2016-11-01T09:40:05.704Z,0
2016-11-01T09:41:05.088Z,0
2016-11-01T09:42:05.970Z,0
2016-11-01T09:43:05.665Z,0
2016-11-01T09:44:05.949Z,0
2016-11-01T09:45:05.933Z,0
2016-11-01T09:46:05.917Z,0
2016-11-01T09:47:05.904Z,0
2016-11-01T09:48:05.879Z,0
2016-11-01T09:49:05.559Z,0
2016-11-01T09:50:05.886Z,0
2016-11-01T09:51:05.827Z,0
2016-11-01T09:52:05.538Z,0
2016-11-01T09:53:05.800Z,0
2016-11-01T09:54:05.793Z,0
2016-11-01T09:55:05.772Z,0
2016-11-01T09:56:05.750Z,0
2016-11-01T09:57:05.433Z,24
2016-11-01T09:58:05.726Z,24
2016-11-01T09:59:05.710Z,28
2016-11-01T10:00:05.089Z,28
2016-11-01T10:01:05.680Z,24
2016-11-01T10:02:05.657Z,28
2016-11-01T10:03:05.649Z,24
2016-11-01T10:04:05.628Z,24
2016-11-01T10:05:05.609Z,24
2016-11-01T10:06:05.597Z,20
2016-11-01T10:07:05.280Z,20
2016-11-01T10:08:05.564Z,20
2016-11-01T10:09:05.552Z,20
2016-11-01T10:10:05.534Z,20
2016-11-01T10:11:05.521Z,16
2016-11-01T10:12:05.200Z,20
2016-11-01T10:13:05.487Z,20
2016-11-01T10:14:05.472Z,20
2016-11-01T10:15:05.450Z,20
2016-11-01T10:16:05.140Z,16
2016-11-01T10:17:05.131Z,20
2016-11-01T10:18:05.112Z,20
2016-11-01T10:19:05.390Z,20
2016-11-01T10:20:05.372Z,24
2016-11-01T10:21:05.358Z,24
2016-11-01T10:22:05.041Z,28
2016-11-01T10:23:05.329Z,28
2016-11-01T10:24:05.319Z,28
2016-11-01T10:25:04.695Z,28
2016-11-01T10:26:04.982Z,32
2016-11-01T10:27:05.261Z,32
2016-11-01T10:28:05.282Z,36
2016-11-01T10:29:04.933Z,32
2016-11-01T10:30:04.620Z,28
2016-11-01T10:31:05.238Z,36
2016-11-01T10:32:04.893Z,24
2016-11-01T10:33:04.869Z,28
2016-11-01T10:34:05.155Z,24
2016-11-01T10:35:04.839Z,24
2016-11-01T10:36:04.815Z,24
2016-11-01T10:37:05.108Z,28
2016-11-01T10:38:04.786Z,24
2016-11-01T10:39:05.075Z,24
2016-11-01T10:40:05.061Z,28
2016-11-01T10:41:05.040Z,20
2016-11-01T10:42:04.734Z,20
2016-11-01T10:43:05.009Z,20
2016-11-01T10:44:04.996Z,20
2016-11-01T10:45:04.984Z,16
2016-11-01T10:46:04.665Z,20
2016-11-01T10:47:04.938Z,20
2016-11-01T10:48:04.628Z,24
2016-11-01T10:49:04.613Z,20
2016-11-01T10:50:04.894Z,16
2016-11-01T10:51:04.874Z,16
2016-11-01T10:52:04.598Z,16
2016-11-01T10:53:04.547Z,16
2016-11-01T10:54:04.836Z,16
2016-11-01T10:55:04.526Z,16
2016-11-01T10:56:04.502Z,20
2016-11-01T10:57:04.802Z,20
2016-11-01T10:58:04.471Z,20
2016-11-01T10:59:04.760Z,20
2016-11-01T11:00:04.435Z,20
2016-11-01T11:01:04.428Z,20
2016-11-01T11:02:04.445Z,24
2016-11-01T11:03:04.694Z,24
2016-11-01T11:04:04.676Z,24
2016-11-01T11:05:04.056Z,24
2016-11-01T11:06:04.347Z,28
2016-11-01T11:07:04.633Z,32
2016-11-01T11:08:04.018Z,32
2016-11-01T11:09:04.309Z,28
2016-11-01T11:10:04.589Z,36
2016-11-01T11:11:04.568Z,32
2016-11-01T11:12:04.269Z,48
2016-11-01T11:13:04.239Z,28
2016-11-01T11:14:04.219Z,44
2016-11-01T11:15:04.510Z,40
2016-11-01T11:16:04.496Z,48
2016-11-01T11:17:04.483Z,56
2016-11-01T11:18:03.858Z,48
2016-11-01T11:19:04.145Z,48
2016-11-01T11:20:04.432Z,52
2016-11-01T11:21:04.414Z,48
2016-11-01T11:22:04.099Z,48
2016-11-01T11:23:04.381Z,48
2016-11-01T11:24:04.415Z,40
2016-11-01T11:25:03.756Z,40
2016-11-01T11:26:04.334Z,36
2016-11-01T11:27:04.019Z,28
2016-11-01T11:28:04.300Z,24
2016-11-01T11:29:04.291Z,24
2016-11-01T11:30:03.682Z,20
2016-11-01T11:31:04.299Z,20
2016-11-01T11:32:03.639Z,24
2016-11-01T11:33:04.260Z,24
2016-11-01T11:34:03.907Z,24
2016-11-01T11:35:04.202Z,24
2016-11-01T11:36:03.878Z,24
2016-11-01T11:37:03.872Z,24
2016-11-01T11:38:03.548Z,28
2016-11-01T11:39:04.137Z,20
2016-11-01T11:40:03.816Z,20
2016-11-01T11:41:03.811Z,20
2016-11-01T11:42:03.793Z,20
2016-11-01T11:43:03.773Z,24
2016-11-01T11:44:03.749Z,24
2016-11-01T11:45:04.043Z,20
2016-11-01T11:46:03.418Z,20
2016-11-01T11:47:03.411Z,24
2016-11-01T11:48:04.022Z,24
2016-11-01T11:49:03.969Z,24
2016-11-01T11:50:03.952Z,28
2016-11-01T11:51:03.938Z,32
2016-11-01T11:52:03.933Z,32
2016-11-01T11:53:03.617Z,32
2016-11-01T11:54:03.904Z,32
2016-11-01T11:55:03.877Z,28
2016-11-01T11:56:03.563Z,28
2016-11-01T11:57:03.842Z,20
2016-11-01T11:58:03.528Z,20
2016-11-01T11:59:03.852Z,24
2016-11-01T12:00:03.503Z,16
2016-11-01T12:01:03.487Z,16
2016-11-01T12:02:03.802Z,12
2016-11-01T12:03:03.443Z,12
2016-11-01T12:04:03.749Z,12
2016-11-01T12:05:03.720Z,16
2016-11-01T12:06:03.744Z,16
2016-11-01T12:07:03.702Z,20
2016-11-01T12:08:03.376Z,24
2016-11-01T12:09:03.665Z,24
2016-11-01T12:10:03.643Z,24
2016-11-01T12:11:03.668Z,28
2016-11-01T12:12:03.617Z,32
2016-11-01T12:13:03.291Z,32
2016-11-01T12:14:03.578Z,32
2016-11-01T12:15:03.277Z,28
2016-11-01T12:16:03.559Z,32
2016-11-01T12:17:03.230Z,24
2016-11-01T12:18:03.526Z,24
2016-11-01T12:19:03.505Z,24
2016-11-01T12:20:03.181Z,24
2016-11-01T12:21:03.206Z,20
2016-11-01T12:22:03.458Z,20
2016-11-01T12:23:03.446Z,20
2016-11-01T12:24:03.119Z,20
2016-11-01T12:25:03.110Z,24
2016-11-01T12:26:03.396Z,24
2016-11-01T12:27:03.383Z,16
2016-11-01T12:28:03.358Z,16
2016-11-01T12:29:03.342Z,12
2016-11-01T12:30:03.336Z,8
2016-11-01T12:31:03.325Z,8
2016-11-01T12:32:03.299Z,12
2016-11-01T12:33:03.289Z,12
2016-11-01T12:34:03.271Z,12
2016-11-01T12:35:03.250Z,12
2016-11-01T12:36:02.637Z,12
2016-11-01T12:37:03.233Z,16
2016-11-01T12:38:03.209Z,12
2016-11-01T12:39:02.883Z,12
2016-11-01T12:40:03.172Z,12
2016-11-01T12:41:02.254Z,8
2016-11-01T12:42:02.851Z,8
2016-11-01T12:43:03.128Z,8
2016-11-01T12:44:03.140Z,8
2016-11-01T12:45:03.098Z,8
2016-11-01T12:46:02.786Z,8
2016-11-01T12:47:02.759Z,12
2016-11-01T12:48:03.058Z,20
2016-11-01T12:49:03.033Z,24
2016-11-01T12:50:03.029Z,16
2016-11-01T12:51:02.714Z,12
2016-11-01T12:52:02.984Z,8
2016-11-01T12:53:02.973Z,8
2016-11-01T12:54:02.958Z,8
2016-11-01T12:55:02.655Z,4
2016-11-01T12:56:02.926Z,4
2016-11-01T12:57:02.604Z,4
2016-11-01T12:58:02.898Z,4
2016-11-01T12:59:02.876Z,4
2016-11-01T13:00:02.264Z,8
2016-11-01T13:01:02.843Z,4
2016-11-01T13:02:02.529Z,4
2016-11-01T13:03:02.814Z,4
2016-11-01T13:04:02.494Z,8
2016-11-01T13:05:02.480Z,4
2016-11-01T13:06:02.769Z,4
2016-11-01T13:07:02.178Z,4
2016-11-01T13:08:02.431Z,4
2016-11-01T13:09:02.730Z,4
2016-11-01T13:10:02.698Z,4
2016-11-01T13:11:02.382Z,4
2016-11-01T13:12:02.371Z,4
2016-11-01T13:13:02.659Z,8
2016-11-01T13:14:02.650Z,4
2016-11-01T13:15:02.627Z,8
2016-11-01T13:16:02.306Z,8
2016-11-01T13:17:02.286Z,8
2016-11-01T13:18:01.978Z,8
2016-11-01T13:19:02.250Z,8
2016-11-01T13:20:02.246Z,4
2016-11-01T13:21:02.236Z,4
2016-11-01T13:22:01.919Z,4
2016-11-01T13:23:02.200Z,4
2016-11-01T13:24:02.475Z,0
2016-11-01T13:25:02.202Z,4
2016-11-01T13:26:02.153Z,4
2016-11-01T13:27:02.137Z,4
2016-11-01T13:28:01.810Z,4
2016-11-01T13:29:02.098Z,0
2016-11-01T13:30:02.088Z,4
2016-11-01T13:31:02.071Z,8
2016-11-01T13:32:02.352Z,4
2016-11-01T13:33:02.374Z,8
2016-11-01T13:34:02.020Z,8
2016-11-01T13:35:02.010Z,4
2016-11-01T13:36:01.993Z,4
2016-11-01T13:37:01.961Z,8
2016-11-01T13:38:02.253Z,8
2016-11-01T13:39:01.938Z,8
2016-11-01T13:40:01.615Z,8
2016-11-01T13:41:01.908Z,4
2016-11-01T13:42:01.891Z,8
2016-11-01T13:43:02.178Z,8
2016-11-01T13:44:01.862Z,4
2016-11-01T13:45:01.842Z,4
2016-11-01T13:46:01.823Z,4
2016-11-01T13:47:02.167Z,4
2016-11-01T13:48:01.788Z,4
2016-11-01T13:49:02.085Z,4
2016-11-01T13:50:01.464Z,4
2016-11-01T13:51:01.753Z,4
2016-11-01T13:52:01.476Z,4
2016-11-01T13:53:02.073Z,4
2016-11-01T13:54:01.399Z,4
2016-11-01T13:55:01.686Z,4
2016-11-01T13:56:02.008Z,0
2016-11-01T13:57:02.002Z,0
2016-11-01T13:58:01.633Z,0
2016-11-01T13:59:01.924Z,0
2016-11-01T14:00:01.303Z,0
2016-11-01T14:01:01.895Z,4
2016-11-01T14:02:01.875Z,4
2016-11-01T14:03:01.553Z,0
2016-11-01T14:04:01.842Z,0
2016-11-01T14:05:01.829Z,0
2016-11-01T14:06:01.547Z,0
2016-11-01T14:07:01.190Z,4
2016-11-01T14:08:01.177Z,4
2016-11-01T14:09:01.509Z,4
2016-11-01T14:10:01.440Z,4
2016-11-01T14:11:01.428Z,8
2016-11-01T14:12:01.763Z,8
2016-11-01T14:13:01.698Z,4
2016-11-01T14:14:01.685Z,4
2016-11-01T14:15:01.059Z,4
2016-11-01T14:16:01.659Z,8
2016-11-01T14:17:01.635Z,8
2016-11-01T14:18:01.615Z,4
2016-11-01T14:19:01.604Z,8
2016-11-01T14:20:01.323Z,4
2016-11-01T14:21:01.575Z,8
2016-11-01T14:22:01.556Z,8
2016-11-01T14:23:01.538Z,4
2016-11-01T14:24:01.225Z,8
2016-11-01T14:25:01.231Z,8
2016-11-01T14:26:01.487Z,4
2016-11-01T14:27:01.171Z,4
2016-11-01T14:28:01.463Z,8
2016-11-01T14:29:01.436Z,4
2016-11-01T14:30:01.125Z,4
2016-11-01T14:31:01.420Z,4
2016-11-01T14:32:01.390Z,4
2016-11-01T14:33:01.369Z,8
2016-11-01T14:34:01.065Z,4
2016-11-01T14:35:01.045Z,4
2016-11-01T14:36:01.027Z,4
2016-11-01T14:37:01.312Z,4
2016-11-01T14:38:01.340Z,4
2016-11-01T14:39:01.274Z,4
2016-11-01T14:40:01.269Z,4
2016-11-01T14:41:00.946Z,4